Time;durP1;ratioP1;P1;durP2;ratioP2;P2;SDS_P1;SDS_P2;PMS_P1;PMS_P2;Temp;Humidity;BMP_temperature;BMP_pressure;BME280_temperature;BME280_humidity;BME280_pressure;Samples;Min_cycle;Max_cycle;Signal;HPM_P1;HPM_P2
2023/05/25 00:02:23;;;;;;;1.35;1.00;;;10.90;99.90;;;;;;4993821;28;20233;-65
2023/05/25 00:04:51;;;;;;;0.95;0.73;;;10.90;99.90;;;;;;4993932;28;20214;-64
2023/05/25 00:07:20;;;;;;;1.30;0.93;;;11.00;99.90;;;;;;4993925;28;20221;-64
2023/05/25 00:09:47;;;;;;;0.60;0.60;;;11.00;99.90;;;;;;4993613;28;20230;-64
2023/05/25 00:12:15;;;;;;;0.90;0.70;;;11.00;99.90;;;;;;4985300;28;20218;-64
2023/05/25 00:14:43;;;;;;;1.27;1.17;;;10.90;99.90;;;;;;4986005;28;20285;-64
2023/05/25 00:17:11;;;;;;;1.17;0.90;;;10.90;99.90;;;;;;4993990;28;20206;-64
2023/05/25 00:19:42;;;;;;;0.80;0.60;;;10.80;99.90;;;;;;4993390;28;20305;-64
2023/05/25 00:22:10;;;;;;;0.77;0.77;;;10.80;99.90;;;;;;4993829;28;20214;-64
2023/05/25 00:24:39;;;;;;;1.20;0.95;;;10.80;99.90;;;;;;4974680;28;20685;-64
2023/05/25 00:27:07;;;;;;;1.00;0.90;;;10.80;99.90;;;;;;4984744;28;20205;-64
2023/05/25 00:29:36;;;;;;;0.80;0.70;;;10.70;99.90;;;;;;4990730;28;20684;-64
2023/05/25 00:32:05;;;;;;;0.90;0.90;;;10.70;99.90;;;;;;4992463;28;20209;-64
2023/05/25 00:34:33;;;;;;;0.68;0.68;;;10.60;99.90;;;;;;4991591;28;20209;-64
2023/05/25 00:37:02;;;;;;;0.70;0.50;;;10.60;99.90;;;;;;4992111;28;20218;-64
2023/05/25 00:39:30;;;;;;;2.67;1.90;;;10.60;99.90;;;;;;4990930;28;20711;-64
2023/05/25 00:42:00;;;;;;;0.70;0.70;;;10.50;99.90;;;;;;4988483;28;20738;-64
2023/05/25 00:44:28;;;;;;;0.77;0.70;;;10.50;99.90;;;;;;4991150;28;20210;-65
2023/05/25 00:46:56;;;;;;;1.30;1.05;;;10.50;99.90;;;;;;4986939;28;20261;-64
2023/05/25 00:49:24;;;;;;;0.65;0.50;;;10.50;99.90;;;;;;4987593;28;21616;-64
2023/05/25 00:51:53;;;;;;;0.98;0.88;;;10.60;99.90;;;;;;4992796;28;20206;-64
2023/05/25 00:54:22;;;;;;;0.90;0.80;;;10.60;99.90;;;;;;4990475;28;20206;-63
2023/05/25 00:56:53;;;;;;;1.00;0.90;;;10.60;99.90;;;;;;4990644;28;20229;-63
2023/05/25 00:59:34;;;;;;;1.00;0.90;;;10.60;99.90;;;;;;4991468;28;20213;-63
2023/05/25 01:02:05;;;;;;;1.02;0.90;;;10.60;99.90;;;;;;4989515;28;20206;-64
2023/05/25 01:04:36;;;;;;;1.08;0.93;;;10.60;99.90;;;;;;4991434;28;20624;-63
2023/05/25 01:07:08;;;;;;;1.05;0.93;;;10.60;99.90;;;;;;4991429;28;20210;-63
2023/05/25 01:09:39;;;;;;;1.52;1.00;;;10.60;99.90;;;;;;4992490;28;20277;-63
2023/05/25 01:12:09;;;;;;;1.10;0.88;;;10.60;99.90;;;;;;4992852;28;20205;-63
2023/05/25 01:14:39;;;;;;;1.13;1.02;;;10.60;99.90;;;;;;4992414;28;20712;-63
2023/05/25 01:17:08;;;;;;;1.08;0.80;;;10.50;99.90;;;;;;4992829;28;20220;-63
2023/05/25 01:19:39;;;;;;;1.00;0.90;;;10.60;99.90;;;;;;4991806;28;20221;-63
2023/05/25 01:22:21;;;;;;;2.17;0.80;;;10.70;99.90;;;;;;4992740;28;20248;-63
2023/05/25 01:24:53;;;;;;;1.33;1.17;;;10.70;99.90;;;;;;4980404;28;20214;-64
2023/05/25 01:27:26;;;;;;;1.25;0.70;;;10.70;99.90;;;;;;4988572;28;20213;-64
2023/05/25 01:29:57;;;;;;;0.70;0.55;;;10.70;99.90;;;;;;4992338;28;20213;-64
2023/05/25 01:32:26;;;;;;;1.95;1.00;;;10.70;99.90;;;;;;4992266;28;20205;-64
2023/05/25 01:34:56;;;;;;;0.70;0.65;;;10.70;99.90;;;;;;4989600;28;20260;-64
2023/05/25 01:37:27;;;;;;;1.88;0.70;;;10.70;99.90;;;;;;4989300;28;20218;-64
2023/05/25 01:39:55;;;;;;;0.95;0.73;;;10.70;99.90;;;;;;4992010;28;20260;-64
2023/05/25 01:42:23;;;;;;;0.85;0.50;;;10.70;99.90;;;;;;4990386;28;20210;-65
2023/05/25 01:44:51;;;;;;;1.17;0.65;;;10.60;99.90;;;;;;4992180;28;20210;-64
2023/05/25 01:47:23;;;;;;;0.68;0.50;;;10.70;99.90;;;;;;4990604;28;20210;-65
2023/05/25 01:49:59;;;;;;;1.20;1.10;;;10.80;99.90;;;;;;4984332;28;20243;-64
2023/05/25 01:52:35;;;;;;;0.70;0.60;;;10.80;99.90;;;;;;4991143;28;20206;-64
2023/05/25 01:55:06;;;;;;;1.20;0.82;;;10.80;99.90;;;;;;4990725;28;20205;-63
2023/05/25 01:57:37;;;;;;;1.10;0.73;;;10.80;99.90;;;;;;4991013;28;20759;-64
2023/05/25 02:00:06;;;;;;;0.80;0.70;;;10.70;99.90;;;;;;4985825;28;20221;-64
2023/05/25 02:02:35;;;;;;;1.00;0.90;;;10.70;99.90;;;;;;4987067;28;20577;-64
2023/05/25 02:05:03;;;;;;;1.13;0.80;;;10.80;99.90;;;;;;4989673;28;20206;-64
2023/05/25 02:07:33;;;;;;;1.55;1.20;;;10.80;99.90;;;;;;4988955;28;20248;-64
2023/05/25 02:10:01;;;;;;;2.05;0.80;;;10.80;99.90;;;;;;4987858;28;20198;-63
2023/05/25 02:12:29;;;;;;;0.95;0.85;;;10.90;99.90;;;;;;4986029;28;20206;-64
2023/05/25 02:14:57;;;;;;;0.80;0.70;;;10.90;99.90;;;;;;4989625;28;20218;-64
2023/05/25 02:17:27;;;;;;;0.75;0.60;;;10.90;99.90;;;;;;4987315;28;20209;-64
2023/05/25 02:19:55;;;;;;;1.40;1.30;;;11.00;99.90;;;;;;4988400;28;20229;-65
2023/05/25 02:22:23;;;;;;;1.00;0.80;;;11.00;99.90;;;;;;4988391;28;20563;-64
2023/05/25 02:24:53;;;;;;;0.80;0.80;;;11.10;99.90;;;;;;4985273;28;20284;-64
2023/05/25 02:27:21;;;;;;;1.38;1.10;;;11.00;99.90;;;;;;4986100;28;20206;-64
2023/05/25 02:29:49;;;;;;;2.35;0.90;;;10.90;99.90;;;;;;4987503;28;20281;-64
2023/05/25 02:32:17;;;;;;;1.40;1.30;;;10.80;99.90;;;;;;4987690;28;20217;-63
2023/05/25 02:34:45;;;;;;;0.75;0.70;;;10.80;99.90;;;;;;4989130;28;20211;-64
2023/05/25 02:37:13;;;;;;;1.88;0.70;;;10.80;99.90;;;;;;4989414;28;20205;-64
2023/05/25 02:39:41;;;;;;;1.10;1.00;;;10.80;99.90;;;;;;4983928;28;20237;-63
2023/05/25 02:42:10;;;;;;;0.60;0.60;;;10.70;99.90;;;;;;4981842;28;20623;-63
2023/05/25 02:44:38;;;;;;;1.13;1.02;;;10.80;99.90;;;;;;4986091;28;20221;-65
2023/05/25 02:47:06;;;;;;;0.80;0.60;;;10.90;99.90;;;;;;4988798;28;20205;-64
2023/05/25 02:49:34;;;;;;;1.00;0.90;;;11.00;99.90;;;;;;4981871;28;20806;-64
2023/05/25 02:52:02;;;;;;;0.80;0.77;;;11.10;99.90;;;;;;4982859;28;20736;-66
2023/05/25 02:54:30;;;;;;;0.90;0.70;;;11.10;99.90;;;;;;4982780;28;20209;-64
2023/05/25 02:56:58;;;;;;;0.95;0.85;;;11.10;99.90;;;;;;4984537;28;20209;-64
2023/05/25 02:59:27;;;;;;;2.05;1.63;;;11.20;99.90;;;;;;4989471;28;20221;-63
2023/05/25 03:01:55;;;;;;;0.88;0.80;;;11.20;99.90;;;;;;4991258;28;20276;-64
2023/05/25 03:04:23;;;;;;;1.02;0.93;;;11.10;99.90;;;;;;4991110;28;20229;-63
2023/05/25 03:06:51;;;;;;;0.98;0.88;;;11.00;99.90;;;;;;4983469;28;20206;-64
2023/05/25 03:09:19;;;;;;;1.50;1.00;;;11.10;99.90;;;;;;4987693;28;20292;-64
2023/05/25 03:11:46;;;;;;;0.75;0.60;;;11.10;99.90;;;;;;4989167;28;20214;-64
2023/05/25 03:14:14;;;;;;;1.15;0.70;;;11.10;99.90;;;;;;4986888;28;20260;-64
2023/05/25 03:16:44;;;;;;;1.13;0.70;;;11.10;99.90;;;;;;4989516;28;20559;-65
2023/05/25 03:19:12;;;;;;;1.08;0.80;;;11.10;99.90;;;;;;4986925;28;20599;-64
2023/05/25 03:21:40;;;;;;;1.17;1.08;;;11.10;99.90;;;;;;4986998;28;20884;-64
2023/05/25 03:24:08;;;;;;;0.77;0.70;;;11.20;99.90;;;;;;4989431;28;20600;-65
2023/05/25 03:26:36;;;;;;;0.70;0.70;;;11.20;99.90;;;;;;4991686;28;20209;-64
2023/05/25 03:29:05;;;;;;;1.73;0.65;;;11.20;99.90;;;;;;4989942;28;20238;-64
2023/05/25 03:31:33;;;;;;;1.20;1.00;;;11.20;99.90;;;;;;4991033;28;20202;-65
2023/05/25 03:34:03;;;;;;;1.55;0.80;;;11.30;99.90;;;;;;4993764;28;20252;-65
2023/05/25 03:36:32;;;;;;;1.30;1.20;;;11.30;99.90;;;;;;4991250;28;20198;-65
2023/05/25 03:39:00;;;;;;;0.82;0.80;;;11.30;99.90;;;;;;4991520;28;20327;-64
2023/05/25 03:41:28;;;;;;;1.10;1.00;;;11.40;99.90;;;;;;4992116;28;20226;-64
2023/05/25 03:43:56;;;;;;;1.40;0.98;;;11.40;99.90;;;;;;4981393;28;20217;-65
2023/05/25 03:46:24;;;;;;;0.93;0.75;;;11.40;99.90;;;;;;4999677;28;20214;-66
2023/05/25 03:48:52;;;;;;;1.30;1.00;;;11.50;99.90;;;;;;4994038;28;20333;-66
2023/05/25 03:51:21;;;;;;;1.15;0.82;;;11.40;99.90;;;;;;4993622;28;20206;-65
2023/05/25 03:53:49;;;;;;;0.77;0.68;;;11.40;99.90;;;;;;4985752;28;20214;-64
2023/05/25 03:56:17;;;;;;;0.80;0.73;;;11.30;99.90;;;;;;4993004;28;20292;-64
2023/05/25 03:58:45;;;;;;;1.08;0.70;;;11.30;99.90;;;;;;4997847;28;20243;-63
2023/05/25 04:01:13;;;;;;;2.75;1.52;;;11.30;99.90;;;;;;4986831;28;20223;-64
2023/05/25 04:03:41;;;;;;;0.70;0.70;;;11.20;99.90;;;;;;4986606;28;20638;-64
2023/05/25 04:06:10;;;;;;;0.90;0.73;;;11.30;99.90;;;;;;4994021;28;20221;-63
2023/05/25 04:08:39;;;;;;;0.70;0.60;;;11.30;99.90;;;;;;4993777;28;20229;-64
2023/05/25 04:11:08;;;;;;;1.70;1.08;;;11.20;99.90;;;;;;4991033;28;20286;-64
2023/05/25 04:13:39;;;;;;;0.80;0.80;;;11.30;99.90;;;;;;4989808;28;20720;-64
2023/05/25 04:16:07;;;;;;;1.00;0.90;;;11.20;99.90;;;;;;4977160;28;20202;-63
2023/05/25 04:18:36;;;;;;;1.13;0.90;;;11.30;99.90;;;;;;4993290;28;20234;-63
2023/05/25 04:21:04;;;;;;;2.28;1.00;;;11.40;99.90;;;;;;4993190;28;20230;-65
2023/05/25 04:23:33;;;;;;;0.70;0.70;;;11.30;99.90;;;;;;4984694;28;20578;-64
2023/05/25 04:26:04;;;;;;;0.70;0.70;;;11.30;99.90;;;;;;4979911;28;20225;-64
2023/05/25 04:28:32;;;;;;;0.80;0.70;;;11.40;99.90;;;;;;4991790;28;20287;-65
2023/05/25 04:31:00;;;;;;;1.70;0.82;;;11.40;99.90;;;;;;4992183;28;20204;-64
2023/05/25 04:33:28;;;;;;;0.95;0.85;;;11.40;99.90;;;;;;4993134;28;20210;-65
2023/05/25 04:35:58;;;;;;;1.50;0.75;;;11.50;99.90;;;;;;4985112;28;20244;-64
2023/05/25 04:38:26;;;;;;;1.02;0.93;;;11.30;99.90;;;;;;4990623;28;20298;-64
2023/05/25 04:40:55;;;;;;;3.40;1.38;;;11.30;99.90;;;;;;4988874;28;20257;-63
2023/05/25 04:43:24;;;;;;;1.30;1.13;;;11.20;99.90;;;;;;4989579;28;20210;-64
2023/05/25 04:45:53;;;;;;;0.90;0.70;;;11.10;99.90;;;;;;4987782;28;20206;-63
2023/05/25 04:48:21;;;;;;;2.00;1.00;;;11.10;99.90;;;;;;4989790;28;20248;-63
2023/05/25 04:50:50;;;;;;;1.80;1.27;;;11.10;99.90;;;;;;4987975;28;20665;-64
2023/05/25 04:53:19;;;;;;;1.10;0.93;;;11.20;99.90;;;;;;4990000;28;20217;-64
2023/05/25 04:55:48;;;;;;;1.33;1.05;;;11.30;99.90;;;;;;4988052;28;20202;-63
2023/05/25 04:58:16;;;;;;;2.05;1.20;;;11.50;99.90;;;;;;4990042;28;20281;-64
2023/05/25 05:00:46;;;;;;;1.00;0.93;;;11.50;99.90;;;;;;4988018;28;20214;-63
2023/05/25 05:03:14;;;;;;;1.02;0.93;;;11.50;99.90;;;;;;4987221;28;20284;-63
2023/05/25 05:05:43;;;;;;;1.95;0.80;;;11.40;99.90;;;;;;4986902;28;20197;-64
2023/05/25 05:08:11;;;;;;;3.08;1.25;;;11.40;99.90;;;;;;4989325;28;20234;-64
2023/05/25 05:10:39;;;;;;;2.10;0.98;;;11.40;99.90;;;;;;4983352;28;20555;-64
2023/05/25 05:13:07;;;;;;;1.05;0.95;;;11.50;99.90;;;;;;4987092;28;20257;-63
2023/05/25 05:15:35;;;;;;;1.20;0.90;;;11.50;99.90;;;;;;4987794;28;20214;-63
2023/05/25 05:18:05;;;;;;;1.35;0.80;;;11.60;99.90;;;;;;4988955;28;20233;-63
2023/05/25 05:20:33;;;;;;;1.10;1.00;;;11.60;99.90;;;;;;4987933;28;20206;-66
2023/05/25 05:23:01;;;;;;;1.13;0.90;;;11.60;99.90;;;;;;4986854;28;20225;-63
2023/05/25 05:25:28;;;;;;;1.15;1.05;;;11.70;99.90;;;;;;4989577;28;20609;-64
2023/05/25 05:27:57;;;;;;;1.40;1.20;;;11.80;99.90;;;;;;4990107;28;20273;-64
2023/05/25 05:30:25;;;;;;;2.58;0.75;;;11.90;99.90;;;;;;4986545;28;20202;-64
2023/05/25 05:32:52;;;;;;;0.95;0.80;;;12.00;99.90;;;;;;4988910;28;20260;-64
2023/05/25 05:35:22;;;;;;;0.90;0.88;;;12.10;99.90;;;;;;4988580;28;20534;-64
2023/05/25 05:37:50;;;;;;;1.00;0.90;;;12.20;99.90;;;;;;4987243;28;20299;-64
2023/05/25 05:40:17;;;;;;;1.10;1.00;;;12.20;99.90;;;;;;4986760;28;20202;-64
2023/05/25 05:42:45;;;;;;;1.33;1.23;;;12.40;99.90;;;;;;4986994;28;20237;-63
2023/05/25 05:45:13;;;;;;;0.95;0.82;;;12.40;99.90;;;;;;4988021;28;20205;-64
2023/05/25 05:47:41;;;;;;;0.80;0.70;;;12.50;99.90;;;;;;4986366;28;20206;-64
2023/05/25 05:50:10;;;;;;;1.77;1.13;;;12.60;99.90;;;;;;4988509;28;20229;-64
2023/05/25 05:52:39;;;;;;;0.77;0.68;;;12.70;99.90;;;;;;4985468;28;20213;-64
2023/05/25 05:55:08;;;;;;;1.83;1.05;;;12.80;99.90;;;;;;4986981;28;20205;-63
2023/05/25 05:57:36;;;;;;;0.90;0.80;;;13.00;99.90;;;;;;4989870;28;20214;-64
2023/05/25 06:00:05;;;;;;;0.60;0.50;;;13.00;99.90;;;;;;4988670;28;20252;-64
2023/05/25 06:02:33;;;;;;;0.80;0.80;;;13.10;99.90;;;;;;4985398;28;20292;-64
2023/05/25 06:05:01;;;;;;;1.33;1.05;;;13.20;99.90;;;;;;4985976;28;20657;-65
2023/05/25 06:07:29;;;;;;;0.80;0.63;;;13.30;99.90;;;;;;4987101;28;20233;-65
2023/05/25 06:09:59;;;;;;;0.90;0.73;;;13.40;99.90;;;;;;4987308;28;20217;-65
2023/05/25 06:12:30;;;;;;;2.03;1.05;;;13.50;99.90;;;;;;4986643;28;20285;-64
2023/05/25 06:14:58;;;;;;;1.27;0.80;;;13.50;99.90;;;;;;4987454;28;20215;-64
2023/05/25 06:17:28;;;;;;;0.93;0.80;;;13.60;99.90;;;;;;4976967;28;20206;-64
2023/05/25 06:19:56;;;;;;;0.70;0.70;;;13.60;99.90;;;;;;4972613;28;20217;-65
2023/05/25 06:22:26;;;;;;;0.65;0.63;;;13.70;99.90;;;;;;4975919;28;20573;-64
2023/05/25 06:24:54;;;;;;;0.98;0.90;;;13.70;99.90;;;;;;4972848;28;20708;-65
2023/05/25 06:27:24;;;;;;;1.50;0.80;;;13.80;99.90;;;;;;4972230;28;20215;-65
2023/05/25 06:29:52;;;;;;;1.08;0.98;;;13.90;99.90;;;;;;4975738;28;20629;-64
2023/05/25 06:32:19;;;;;;;1.13;0.93;;;13.90;99.90;;;;;;4975843;28;20203;-64
2023/05/25 06:34:47;;;;;;;0.90;0.90;;;14.00;99.90;;;;;;4971730;28;20562;-64
2023/05/25 06:37:15;;;;;;;1.70;0.60;;;14.10;99.90;;;;;;4972236;28;20685;-64
2023/05/25 06:39:43;;;;;;;0.60;0.50;;;14.20;99.90;;;;;;4971835;28;20289;-64
2023/05/25 06:42:11;;;;;;;1.00;0.70;;;14.30;99.90;;;;;;4971810;28;20246;-65
2023/05/25 06:44:40;;;;;;;0.90;0.73;;;14.40;99.90;;;;;;4985486;28;20213;-64
2023/05/25 06:47:08;;;;;;;1.25;1.08;;;14.40;99.90;;;;;;4972027;28;20242;-64
2023/05/25 06:49:36;;;;;;;0.70;0.60;;;14.50;99.90;;;;;;4971622;28;20293;-64
2023/05/25 06:52:05;;;;;;;0.93;0.80;;;14.60;99.90;;;;;;4981479;28;20207;-64
2023/05/25 06:54:33;;;;;;;1.23;1.00;;;14.60;99.90;;;;;;4975746;28;20262;-64
2023/05/25 06:57:01;;;;;;;0.80;0.60;;;14.70;99.90;;;;;;4979815;28;20657;-65
2023/05/25 06:59:29;;;;;;;0.90;0.60;;;14.60;99.90;;;;;;4977902;28;20221;-64
2023/05/25 07:01:58;;;;;;;0.98;0.77;;;14.70;99.90;;;;;;4974797;28;20218;-64
2023/05/25 07:04:27;;;;;;;0.80;0.70;;;14.70;99.90;;;;;;4975576;28;20253;-65
2023/05/25 07:06:55;;;;;;;1.23;0.70;;;14.90;99.90;;;;;;4985875;28;20592;-65
2023/05/25 07:09:23;;;;;;;0.80;0.60;;;15.00;99.90;;;;;;4981058;28;20595;-66
2023/05/25 07:11:51;;;;;;;0.73;0.68;;;15.10;99.90;;;;;;4975349;28;20634;-64
2023/05/25 07:14:18;;;;;;;2.72;1.23;;;15.20;99.90;;;;;;4975498;28;20202;-63
2023/05/25 07:16:46;;;;;;;0.70;0.60;;;15.20;99.90;;;;;;4975554;28;20207;-64
2023/05/25 07:19:16;;;;;;;2.15;0.95;;;15.20;99.90;;;;;;4975381;28;20218;-64
2023/05/25 07:21:44;;;;;;;2.67;1.27;;;15.30;99.90;;;;;;4983085;28;20206;-65
2023/05/25 07:24:12;;;;;;;0.60;0.50;;;15.30;99.90;;;;;;4981553;28;20705;-64
2023/05/25 07:26:40;;;;;;;0.68;0.50;;;15.30;99.90;;;;;;4974970;28;20294;-65
2023/05/25 07:29:07;;;;;;;0.95;0.85;;;15.30;99.90;;;;;;4977816;28;20231;-64
2023/05/25 07:31:36;;;;;;;0.80;0.60;;;15.40;99.90;;;;;;4983160;28;20566;-65
2023/05/25 07:34:04;;;;;;;0.80;0.47;;;15.60;99.90;;;;;;4974632;28;20207;-64
2023/05/25 07:36:33;;;;;;;0.60;0.50;;;15.60;99.90;;;;;;4975212;28;20214;-64
2023/05/25 07:39:01;;;;;;;0.70;0.60;;;15.70;99.90;;;;;;4974871;28;20242;-64
2023/05/25 07:41:29;;;;;;;4.00;1.25;;;15.90;99.90;;;;;;4974569;28;20206;-64
2023/05/25 07:43:57;;;;;;;0.70;0.50;;;16.10;99.90;;;;;;4974472;28;20265;-64
2023/05/25 07:46:26;;;;;;;0.65;0.57;;;16.10;99.90;;;;;;4975021;28;20210;-64
2023/05/25 07:48:55;;;;;;;0.60;0.50;;;16.20;99.90;;;;;;4974655;28;20242;-64
2023/05/25 07:51:25;;;;;;;0.63;0.55;;;16.30;99.90;;;;;;4982765;28;20210;-64
2023/05/25 07:53:55;;;;;;;4.78;1.30;;;16.40;99.90;;;;;;4981363;28;20202;-64
2023/05/25 07:56:23;;;;;;;0.90;0.52;;;16.50;99.90;;;;;;4980450;28;20229;-64
2023/05/25 07:58:51;;;;;;;1.13;0.82;;;16.50;99.90;;;;;;4992518;28;20230;-64
2023/05/25 08:01:19;;;;;;;0.68;0.50;;;16.50;99.90;;;;;;4974810;28;20269;-64
2023/05/25 08:03:47;;;;;;;0.85;0.68;;;16.60;99.90;;;;;;4974483;28;20222;-65
2023/05/25 08:06:17;;;;;;;0.70;0.50;;;16.80;99.90;;;;;;4975665;28;20809;-66
2023/05/25 08:08:45;;;;;;;0.65;0.50;;;16.90;99.90;;;;;;4983167;28;20218;-63
2023/05/25 08:11:16;;;;;;;1.10;1.00;;;17.10;99.90;;;;;;4981810;28;20236;-63
2023/05/25 08:13:44;;;;;;;0.80;0.75;;;17.20;99.90;;;;;;4981444;28;20675;-63
2023/05/25 08:16:12;;;;;;;0.68;0.60;;;17.30;99.90;;;;;;4978705;28;20261;-63
2023/05/25 08:18:42;;;;;;;0.60;0.50;;;17.40;99.90;;;;;;4981541;28;20259;-63
2023/05/25 08:21:10;;;;;;;1.00;0.60;;;17.40;99.90;;;;;;4974322;28;20210;-63
2023/05/25 08:23:41;;;;;;;0.60;0.43;;;17.50;99.90;;;;;;4980759;28;20696;-63
2023/05/25 08:26:09;;;;;;;0.60;0.40;;;17.80;99.90;;;;;;4974357;28;20198;-63
2023/05/25 08:28:58;;;;;;;0.90;0.60;;;18.00;99.90;;;;;;4982530;28;20232;-63
2023/05/25 08:31:26;;;;;;;0.60;0.40;;;18.20;99.90;;;;;;4973897;28;20678;-63
2023/05/25 08:33:54;;;;;;;0.60;0.40;;;18.30;99.90;;;;;;4979038;28;20233;-64
2023/05/25 08:36:22;;;;;;;0.60;0.50;;;18.30;99.90;;;;;;4985289;28;20262;-64
2023/05/25 08:38:50;;;;;;;0.70;0.60;;;18.30;99.90;;;;;;4973647;28;20222;-63
2023/05/25 08:41:19;;;;;;;1.15;1.02;;;18.40;99.90;;;;;;4973974;28;20215;-63
2023/05/25 08:43:47;;;;;;;0.70;0.65;;;18.50;99.90;;;;;;4973435;28;20226;-63
2023/05/25 08:46:27;;;;;;;0.60;0.40;;;18.50;99.90;;;;;;4980272;28;20215;-64
2023/05/25 08:49:00;;;;;;;0.63;0.63;;;18.40;99.90;;;;;;4974058;28;20234;-64
2023/05/25 08:51:32;;;;;;;0.90;0.68;;;18.50;99.90;;;;;;4973455;28;20214;-63
2023/05/25 08:54:06;;;;;;;2.15;0.90;;;18.60;99.90;;;;;;4973174;28;20269;-63
2023/05/25 08:56:41;;;;;;;1.08;0.60;;;18.80;99.90;;;;;;4973799;28;20202;-63
2023/05/25 08:59:17;;;;;;;0.90;0.68;;;18.70;99.90;;;;;;4973583;28;20281;-63
2023/05/25 09:01:51;;;;;;;0.70;0.50;;;18.50;99.90;;;;;;4973539;28;20210;-64
2023/05/25 09:04:20;;;;;;;0.60;0.47;;;18.70;99.90;;;;;;4979270;28;20305;-63
2023/05/25 09:06:49;;;;;;;0.70;0.57;;;18.90;99.90;;;;;;4973459;28;20206;-64
2023/05/25 09:09:38;;;;;;;0.85;0.85;;;18.90;99.90;;;;;;4980098;28;20694;-64
2023/05/25 09:12:07;;;;;;;0.85;0.68;;;18.90;99.90;;;;;;4981904;28;20218;-64
2023/05/25 09:14:36;;;;;;;0.60;0.40;;;19.10;99.90;;;;;;4987947;28;20206;-64
2023/05/25 09:17:06;;;;;;;0.60;0.60;;;19.30;99.90;;;;;;4975826;28;20210;-63
2023/05/25 09:19:36;;;;;;;0.70;0.70;;;19.40;99.90;;;;;;4982304;28;20305;-64
2023/05/25 09:22:04;;;;;;;0.60;0.50;;;19.20;99.90;;;;;;4982485;28;20214;-63
2023/05/25 09:24:43;;;;;;;3.72;1.20;;;19.20;99.90;;;;;;4972118;28;20226;-64
2023/05/25 09:27:13;;;;;;;0.60;0.60;;;19.40;99.90;;;;;;4973301;28;20260;-63
2023/05/25 09:29:41;;;;;;;1.17;0.70;;;19.60;99.90;;;;;;4975847;28;20224;-64
2023/05/25 09:32:10;;;;;;;0.93;0.50;;;20.00;99.90;;;;;;4973737;28;20220;-65
2023/05/25 09:34:38;;;;;;;0.75;0.73;;;20.10;99.90;;;;;;4983548;28;20210;-63
2023/05/25 09:37:12;;;;;;;0.73;0.60;;;19.90;99.90;;;;;;4972702;28;20202;-64
2023/05/25 09:39:40;;;;;;;0.88;0.70;;;19.80;99.90;;;;;;4972905;28;20366;-64
2023/05/25 09:42:08;;;;;;;0.70;0.50;;;20.00;99.90;;;;;;4983322;28;20573;-63
2023/05/25 09:44:36;;;;;;;0.75;0.55;;;20.00;99.90;;;;;;4985470;28;20223;-64
2023/05/25 09:47:05;;;;;;;1.73;0.88;;;20.30;99.90;;;;;;4974283;28;20217;-64
2023/05/25 09:49:35;;;;;;;0.75;0.50;;;20.40;99.90;;;;;;4977662;28;20234;-63
2023/05/25 09:52:03;;;;;;;0.60;0.47;;;20.70;99.90;;;;;;4972610;28;20568;-64
2023/05/25 09:54:31;;;;;;;0.70;0.50;;;21.00;99.90;;;;;;4978253;28;20735;-64
2023/05/25 09:57:04;;;;;;;0.68;0.60;;;21.20;99.90;;;;;;4974421;28;20597;-64
2023/05/25 09:59:32;;;;;;;0.60;0.50;;;21.50;99.90;;;;;;4975368;28;20226;-63
2023/05/25 10:02:00;;;;;;;0.80;0.70;;;21.40;99.90;;;;;;4972745;28;20222;-63
2023/05/25 10:04:29;;;;;;;0.80;0.75;;;21.30;99.90;;;;;;4978696;28;20226;-64
2023/05/25 10:06:59;;;;;;;0.65;0.60;;;21.40;99.90;;;;;;4972299;28;20584;-63
2023/05/25 10:09:29;;;;;;;0.70;0.47;;;21.20;99.90;;;;;;4972397;28;20228;-64
2023/05/25 10:11:58;;;;;;;1.67;0.80;;;21.10;99.90;;;;;;4973277;28;20650;-64
2023/05/25 10:14:28;;;;;;;0.60;0.50;;;21.30;99.90;;;;;;4986818;28;20605;-63
2023/05/25 10:16:59;;;;;;;0.60;0.40;;;21.30;99.30;;;;;;4979972;28;20321;-64
2023/05/25 10:19:33;;;;;;;0.60;0.50;;;21.40;99.20;;;;;;4972280;28;20226;-64
2023/05/25 10:22:08;;;;;;;0.70;0.60;;;21.70;99.90;;;;;;4980310;28;20206;-64
2023/05/25 10:24:44;;;;;;;0.73;0.73;;;21.70;99.90;;;;;;4980237;28;20222;-64
2023/05/25 10:27:18;;;;;;;0.88;0.70;;;21.70;99.10;;;;;;4971973;28;20688;-64
2023/05/25 10:29:56;;;;;;;1.50;0.82;;;21.80;99.90;;;;;;4987772;28;20210;-64
2023/05/25 10:32:25;;;;;;;0.60;0.52;;;22.00;99.30;;;;;;4972117;28;20218;-64
2023/05/25 10:34:53;;;;;;;0.70;0.68;;;22.10;98.10;;;;;;4978000;28;20207;-65
2023/05/25 10:37:26;;;;;;;1.40;0.80;;;22.10;97.90;;;;;;4972196;28;20215;-63
2023/05/25 10:39:55;;;;;;;0.73;0.60;;;22.20;99.10;;;;;;4971696;28;20219;-63
2023/05/25 10:42:23;;;;;;;0.60;0.40;;;22.10;98.50;;;;;;4972196;28;20218;-64
2023/05/25 10:44:52;;;;;;;0.57;0.40;;;22.20;98.00;;;;;;4979806;28;20223;-65
2023/05/25 10:47:20;;;;;;;0.60;0.52;;;22.30;97.70;;;;;;4972373;28;20215;-64
2023/05/25 10:49:54;;;;;;;2.65;1.02;;;22.60;96.30;;;;;;4971515;28;20248;-64
2023/05/25 10:52:28;;;;;;;0.70;0.68;;;22.50;96.50;;;;;;4981557;28;20207;-64
2023/05/25 10:54:56;;;;;;;1.13;1.02;;;22.50;97.40;;;;;;4974445;28;20222;-64
2023/05/25 10:57:25;;;;;;;1.17;0.95;;;22.30;98.20;;;;;;4971979;28;20547;-64
2023/05/25 11:00:00;;;;;;;0.90;0.90;;;22.60;98.00;;;;;;4987471;28;20640;-64
2023/05/25 11:02:28;;;;;;;0.75;0.75;;;22.80;97.30;;;;;;4971712;28;20206;-63
2023/05/25 11:05:32;;;;;;;0.98;0.63;;;22.70;95.60;;;;;;4978386;28;20223;-64
2023/05/25 11:08:03;;;;;;;0.60;0.40;;;22.80;96.30;;;;;;4976777;28;20790;-64
2023/05/25 11:10:58;;;;;;;1.13;0.73;;;22.90;96.60;;;;;;4972139;28;20613;-63
2023/05/25 11:13:44;;;;;;;0.70;0.60;;;22.70;96.30;;;;;;4962082;28;20222;-63
2023/05/25 11:16:20;;;;;;;0.80;0.60;;;22.60;96.40;;;;;;4971686;28;20210;-64
2023/05/25 11:18:53;;;;;;;0.73;0.60;;;22.70;96.90;;;;;;4971778;28;20228;-65
2023/05/25 11:21:39;;;;;;;0.73;0.70;;;23.00;95.90;;;;;;4978363;28;20287;-64
2023/05/25 11:24:14;;;;;;;1.35;0.55;;;23.20;96.20;;;;;;4973862;28;20741;-64
2023/05/25 11:26:56;;;;;;;0.88;0.40;;;23.60;96.60;;;;;;4983046;28;20580;-64
2023/05/25 11:29:25;;;;;;;0.80;0.77;;;23.70;95.80;;;;;;4971662;28;20698;-64
2023/05/25 11:31:54;;;;;;;0.80;0.80;;;23.60;94.80;;;;;;4971266;28;20208;-64
2023/05/25 11:34:24;;;;;;;1.17;0.50;;;23.80;95.30;;;;;;4978430;28;20618;-65
2023/05/25 11:37:00;;;;;;;1.13;0.60;;;23.90;94.50;;;;;;4971513;28;20207;-64
2023/05/25 11:39:30;;;;;;;0.60;0.40;;;23.30;94.40;;;;;;4978089;28;20250;-64
2023/05/25 11:42:03;;;;;;;1.13;0.73;;;23.20;94.50;;;;;;4974087;28;20211;-65
2023/05/25 11:44:33;;;;;;;0.70;0.70;;;23.30;94.50;;;;;;4970866;28;20282;-64
2023/05/25 11:47:04;;;;;;;0.70;0.60;;;23.60;94.90;;;;;;4976576;28;20219;-64
2023/05/25 11:49:32;;;;;;;0.60;0.40;;;23.80;94.10;;;;;;4974647;28;20278;-65
2023/05/25 11:52:05;;;;;;;0.80;0.80;;;23.70;93.80;;;;;;4982897;28;20211;-64
2023/05/25 11:54:36;;;;;;;0.70;0.60;;;23.10;92.80;;;;;;4974346;28;20677;-64
2023/05/25 11:57:04;;;;;;;1.35;0.65;;;23.30;94.30;;;;;;4975091;28;20270;-64
2023/05/25 11:59:32;;;;;;;0.90;0.80;;;23.60;93.20;;;;;;4974507;28;20238;-64
2023/05/25 12:02:01;;;;;;;0.60;0.50;;;23.60;92.50;;;;;;4974591;28;20208;-64
2023/05/25 12:04:31;;;;;;;0.70;0.65;;;23.70;92.70;;;;;;4981734;28;20741;-65
2023/05/25 12:07:03;;;;;;;0.60;0.45;;;23.70;92.50;;;;;;4974396;28;20255;-63
2023/05/25 12:09:32;;;;;;;0.80;0.70;;;23.50;93.50;;;;;;4979434;28;20231;-64
2023/05/25 12:12:03;;;;;;;0.60;0.47;;;23.80;92.80;;;;;;4985836;28;20216;-63
2023/05/25 12:14:34;;;;;;;0.90;0.63;;;24.00;92.40;;;;;;4986437;28;20211;-64
2023/05/25 12:17:03;;;;;;;0.60;0.40;;;23.90;92.20;;;;;;4974337;28;20270;-64
2023/05/25 12:19:31;;;;;;;0.80;0.70;;;24.10;92.40;;;;;;4973961;28;20232;-64
2023/05/25 12:21:59;;;;;;;0.90;0.80;;;24.30;91.80;;;;;;4974101;28;20205;-64
2023/05/25 12:24:27;;;;;;;1.45;0.65;;;24.30;91.90;;;;;;4974549;28;20212;-64
2023/05/25 12:26:56;;;;;;;1.08;0.60;;;23.90;91.20;;;;;;4982140;28;20227;-64
2023/05/25 12:29:26;;;;;;;0.60;0.50;;;23.80;91.90;;;;;;4974064;28;20216;-63
2023/05/25 12:32:01;;;;;;;0.60;0.40;;;24.30;91.80;;;;;;4983243;28;20216;-64
2023/05/25 12:34:29;;;;;;;0.60;0.60;;;24.10;92.30;;;;;;4981815;28;20664;-64
2023/05/25 12:36:57;;;;;;;0.77;0.55;;;23.90;92.00;;;;;;4974280;28;20204;-63
2023/05/25 12:39:37;;;;;;;1.35;0.95;;;23.80;91.50;;;;;;4973938;28;20228;-63
2023/05/25 12:42:12;;;;;;;0.60;0.60;;;23.70;92.20;;;;;;4974026;28;20214;-64
2023/05/25 12:44:42;;;;;;;0.70;0.70;;;23.70;91.70;;;;;;4974273;28;20212;-64
2023/05/25 12:47:11;;;;;;;0.88;0.55;;;23.80;91.90;;;;;;4973819;28;20254;-65
2023/05/25 12:49:41;;;;;;;0.80;0.50;;;24.00;92.40;;;;;;4973333;28;20251;-63
2023/05/25 12:52:10;;;;;;;0.80;0.65;;;24.40;91.80;;;;;;4976266;28;20218;-64
2023/05/25 12:54:43;;;;;;;0.80;0.57;;;24.20;92.00;;;;;;4980051;28;20213;-63
2023/05/25 12:57:13;;;;;;;0.65;0.60;;;24.40;91.70;;;;;;4973640;28;20300;-64
2023/05/25 12:59:44;;;;;;;0.60;0.40;;;24.70;90.30;;;;;;4972978;28;20240;-64
2023/05/25 13:02:13;;;;;;;0.60;0.60;;;24.80;91.30;;;;;;4973803;28;20215;-64